Time;durP1;ratioP1;P1;durP2;ratioP2;P2;SDS_P1;SDS_P2;PMS_P1;PMS_P2;Temp;Humidity;BMP_temperature;BMP_pressure;BME280_temperature;BME280_humidity;BME280_pressure;Samples;Min_cycle;Max_cycle;Signal;HPM_P1;HPM_P2
2023/06/25 00:02:13;;;;;;;;;;;;;;;;;;5030062;28;19955;-89
2023/06/25 00:04:40;;;;;;;;;;;;;;;;;;5026732;28;19925;-90
2023/06/25 00:07:08;;;;;;;;;;;;;;;;;;5024577;28;19925;-91
2023/06/25 00:09:35;;;;;;;;;;;;;;;;;;5026205;28;19929;-90
2023/06/25 00:12:03;;;;;;;;;;;;;;;;;;5022927;28;19932;-90
2023/06/25 00:14:31;;;;;;;;;;;;;;;;;;5028616;28;20285;-89
2023/06/25 00:16:59;;;;;;;;;;;;;;;;;;5027210;28;20293;-90
2023/06/25 00:19:27;;;;;;;;;;;;;;;;;;5028883;28;19936;-90
2023/06/25 00:21:55;;;;;;;;;;;;;;;;;;5027944;28;19929;-90
2023/06/25 00:24:23;;;;;;;;;;;;;;;;;;5027822;28;19929;-92
2023/06/25 00:26:50;;;;;;;;;;;;;;;;;;5024430;28;19949;-88
2023/06/25 00:29:18;;;;;;;;;;;;;;;;;;5023500;28;20000;-87
2023/06/25 00:31:46;;;;;;;;;;;;;;;;;;5023381;28;19936;-87
2023/06/25 00:34:13;;;;;;;;;;;;;;;;;;5040188;28;19936;-91
2023/06/25 00:36:45;;;;;;;;;;;;;;;;;;5026206;28;19925;-90
2023/06/25 00:39:12;;;;;;;;;;;;;;;;;;5027359;28;19929;-89
2023/06/25 00:41:40;;;;;;;;;;;;;;;;;;5022090;28;20385;-92
2023/06/25 00:44:09;;;;;;;;;;;;;;;;;;5018188;28;19934;-88
2023/06/25 00:46:36;;;;;;;;;;;;;;;;;;5022004;28;19929;-87
2023/06/25 00:49:06;;;;;;;;;;;;;;;;;;5021913;28;20320;-87
2023/06/25 00:51:35;;;;;;;;;;;;;;;;;;5027097;28;19932;-88
2023/06/25 00:54:04;;;;;;;;;;;;;;;;;;5023937;28;19929;-89
2023/06/25 00:56:32;;;;;;;;;;;;;;;;;;5014298;28;20312;-91
2023/06/25 00:59:00;;;;;;;;;;;;;;;;;;5021838;28;20377;-90
2023/06/25 01:01:28;;;;;;;;;;;;;;;;;;5039757;28;19936;-89
2023/06/25 01:03:56;;;;;;;;;;;;;;;;;;5041560;28;19925;-88
2023/06/25 01:06:29;;;;;;;;;;;;;;;;;;5041442;28;19936;-89
2023/06/25 01:08:57;;;;;;;;;;;;;;;;;;5021006;28;19933;-88
2023/06/25 01:11:24;;;;;;;;;;;;;;;;;;5040437;28;19936;-88
2023/06/25 01:13:52;;;;;;;;;;;;;;;;;;5027709;28;19931;-89
2023/06/25 01:16:19;;;;;;;;;;;;;;;;;;5015104;28;19952;-91
2023/06/25 01:18:48;;;;;;;;;;;;;;;;;;5024517;28;19940;-89
2023/06/25 01:21:16;;;;;;;;;;;;;;;;;;5023220;28;20295;-90
2023/06/25 01:23:44;;;;;;;;;;;;;;;;;;5024642;28;19928;-91
2023/06/25 01:26:11;;;;;;;;;;;;;;;;;;5024073;28;20318;-91
2023/06/25 01:28:39;;;;;;;;;;;;;;;;;;5023027;28;19933;-90
2023/06/25 01:31:07;;;;;;;;;;;;;;;;;;5032230;28;20166;-90
2023/06/25 01:33:35;;;;;;;;;;;;;;;;;;5020466;28;20317;-90
2023/06/25 01:36:02;;;;;;;;;;;;;;;;;;5038192;28;19929;-88
2023/06/25 01:38:30;;;;;;;;;;;;;;;;;;5015732;28;19925;-88
2023/06/25 01:40:57;;;;;;;;;;;;;;;;;;5025535;28;19944;-89
2023/06/25 01:43:25;;;;;;;;;;;;;;;;;;5023053;28;19929;-88
2023/06/25 01:45:53;;;;;;;;;;;;;;;;;;5039890;28;20246;-88
2023/06/25 01:48:21;;;;;;;;;;;;;;;;;;5018684;28;19929;-89
2023/06/25 01:50:49;;;;;;;;;;;;;;;;;;5022405;28;19929;-90
2023/06/25 01:53:17;;;;;;;;;;;;;;;;;;5022506;28;20292;-90
2023/06/25 01:55:44;;;;;;;;;;;;;;;;;;5027245;28;20278;-91
2023/06/25 01:58:12;;;;;;;;;;;;;;;;;;5026058;28;20286;-91
2023/06/25 02:00:40;;;;;;;;;;;;;;;;;;5026610;28;19932;-90
2023/06/25 02:03:08;;;;;;;;;;;;;;;;;;5026691;28;19937;-91
2023/06/25 02:05:36;;;;;;;;;;;;;;;;;;5025897;28;20301;-90
2023/06/25 02:08:03;;;;;;;;;;;;;;;;;;5022896;28;19929;-89
2023/06/25 02:10:32;;;;;;;;;;;;;;;;;;5026467;28;19932;-90
2023/06/25 02:13:00;;;;;;;;;;;;;;;;;;5024745;28;19932;-90
2023/06/25 02:15:28;;;;;;;;;;;;;;;;;;5025611;28;19933;-90
2023/06/25 02:17:56;;;;;;;;;;;;;;;;;;5025712;28;19925;-90
2023/06/25 02:20:23;;;;;;;;;;;;;;;;;;5024676;28;20396;-89
2023/06/25 02:22:51;;;;;;;;;;;;;;;;;;5019558;28;19933;-88
2023/06/25 02:25:19;;;;;;;;;;;;;;;;;;5024930;28;19925;-89
2023/06/25 02:27:46;;;;;;;;;;;;;;;;;;5025612;28;19944;-89
2023/06/25 02:30:14;;;;;;;;;;;;;;;;;;5020694;28;19926;-89
2023/06/25 02:32:42;;;;;;;;;;;;;;;;;;5020159;28;19934;-88
2023/06/25 02:35:10;;;;;;;;;;;;;;;;;;5040003;28;19929;-89
2023/06/25 02:37:37;;;;;;;;;;;;;;;;;;5023694;28;19929;-89
2023/06/25 02:40:05;;;;;;;;;;;;;;;;;;5022385;28;19936;-89
2023/06/25 02:42:33;;;;;;;;;;;;;;;;;;5020165;28;19940;-89
2023/06/25 02:45:00;;;;;;;;;;;;;;;;;;5015540;28;19940;-88
2023/06/25 02:47:28;;;;;;;;;;;;;;;;;;5021270;28;19936;-90
2023/06/25 02:49:56;;;;;;;;;;;;;;;;;;5015573;28;19933;-90
2023/06/25 02:52:24;;;;;;;;;;;;;;;;;;5019522;28;19933;-89
2023/06/25 02:54:51;;;;;;;;;;;;;;;;;;5027394;28;19936;-89
2023/06/25 02:57:19;;;;;;;;;;;;;;;;;;5025625;28;19941;-88
2023/06/25 02:59:46;;;;;;;;;;;;;;;;;;5024201;28;20382;-89
2023/06/25 03:02:14;;;;;;;;;;;;;;;;;;5030479;28;19940;-90
2023/06/25 03:04:42;;;;;;;;;;;;;;;;;;5033062;28;19932;-91
2023/06/25 03:07:10;;;;;;;;;;;;;;;;;;5033056;28;19925;-91
2023/06/25 03:09:38;;;;;;;;;;;;;;;;;;5025609;28;19937;-90
2023/06/25 03:12:06;;;;;;;;;;;;;;;;;;5021736;28;19929;-90
2023/06/25 03:14:34;;;;;;;;;;;;;;;;;;5024728;28;19929;-89
2023/06/25 03:17:02;;;;;;;;;;;;;;;;;;5023427;28;19932;-90
2023/06/25 03:19:29;;;;;;;;;;;;;;;;;;5026116;28;19929;-89
2023/06/25 03:21:57;;;;;;;;;;;;;;;;;;5022209;28;19937;-91
2023/06/25 03:24:25;;;;;;;;;;;;;;;;;;5023133;28;19925;-90
2023/06/25 03:26:53;;;;;;;;;;;;;;;;;;5024607;28;19933;-89
2023/06/25 03:29:21;;;;;;;;;;;;;;;;;;5026457;28;19932;-90
2023/06/25 03:31:48;;;;;;;;;;;;;;;;;;5023142;28;19929;-89
2023/06/25 03:34:19;;;;;;;;;;;;;;;;;;5022664;28;19933;-89
2023/06/25 03:36:46;;;;;;;;;;;;;;;;;;5021156;28;19926;-89
2023/06/25 03:39:14;;;;;;;;;;;;;;;;;;5019428;28;20873;-88
2023/06/25 03:41:42;;;;;;;;;;;;;;;;;;5025739;28;19929;-90
2023/06/25 03:44:09;;;;;;;;;;;;;;;;;;5029197;28;19929;-89
2023/06/25 03:46:37;;;;;;;;;;;;;;;;;;5029580;28;19933;-89
2023/06/25 03:49:05;;;;;;;;;;;;;;;;;;5024315;28;19940;-89
2023/06/25 03:51:35;;;;;;;;;;;;;;;;;;5018144;28;19940;-90
2023/06/25 03:54:04;;;;;;;;;;;;;;;;;;5021048;28;20555;-89
2023/06/25 03:56:31;;;;;;;;;;;;;;;;;;5030698;28;19929;-89
2023/06/25 03:58:59;;;;;;;;;;;;;;;;;;5027402;28;19936;-90
2023/06/25 04:01:27;;;;;;;;;;;;;;;;;;5019766;28;20570;-88
2023/06/25 04:03:54;;;;;;;;;;;;;;;;;;5020842;28;19951;-89
2023/06/25 04:06:22;;;;;;;;;;;;;;;;;;5023422;28;19925;-89
2023/06/25 04:08:49;;;;;;;;;;;;;;;;;;5020392;28;19952;-88
2023/06/25 04:11:17;;;;;;;;;;;;;;;;;;5027516;28;20274;-90
2023/06/25 04:13:45;;;;;;;;;;;;;;;;;;5029429;28;19933;-90
2023/06/25 04:16:13;;;;;;;;;;;;;;;;;;5029593;28;20369;-90
2023/06/25 04:18:40;;;;;;;;;;;;;;;;;;5027879;28;19992;-88
2023/06/25 04:21:08;;;;;;;;;;;;;;;;;;5016487;28;19925;-88
2023/06/25 04:23:35;;;;;;;;;;;;;;;;;;5042908;28;20575;-91
2023/06/25 04:26:03;;;;;;;;;;;;;;;;;;5030258;28;20380;-89
2023/06/25 04:28:31;;;;;;;;;;;;;;;;;;5029491;28;19940;-89
2023/06/25 04:30:58;;;;;;;;;;;;;;;;;;5024080;28;19929;-89
2023/06/25 04:33:26;;;;;;;;;;;;;;;;;;5030863;28;19940;-90
2023/06/25 04:35:54;;;;;;;;;;;;;;;;;;5037539;28;19940;-90
2023/06/25 04:38:23;;;;;;;;;;;;;;;;;;5024754;28;19925;-88
2023/06/25 04:40:50;;;;;;;;;;;;;;;;;;5021978;28;19932;-89
2023/06/25 04:43:18;;;;;;;;;;;;;;;;;;5025817;28;19925;-90
2023/06/25 04:45:46;;;;;;;;;;;;;;;;;;5020026;28;20286;-89
2023/06/25 04:48:13;;;;;;;;;;;;;;;;;;5020422;28;19926;-90
2023/06/25 04:50:41;;;;;;;;;;;;;;;;;;5026715;28;19933;-89
2023/06/25 04:53:09;;;;;;;;;;;;;;;;;;5023599;28;19933;-89
2023/06/25 04:55:36;;;;;;;;;;;;;;;;;;5020156;28;19929;-90
2023/06/25 04:58:04;;;;;;;;;;;;;;;;;;5019954;28;19929;-89
2023/06/25 05:00:32;;;;;;;;;;;;;;;;;;5021052;28;19933;-89
2023/06/25 05:02:59;;;;;;;;;;;;;;;;;;5023618;28;19929;-90
2023/06/25 05:05:27;;;;;;;;;;;;;;;;;;5026262;28;20297;-90
2023/06/25 05:07:55;;;;;;;;;;;;;;;;;;5022473;28;19925;-89
2023/06/25 05:10:22;;;;;;;;;;;;;;;;;;5017697;28;20381;-91
2023/06/25 05:12:50;;;;;;;;;;;;;;;;;;5025071;28;19929;-89
2023/06/25 05:15:17;;;;;;;;;;;;;;;;;;5026883;28;19925;-89
2023/06/25 05:17:45;;;;;;;;;;;;;;;;;;5027820;28;19932;-89
2023/06/25 05:20:13;;;;;;;;;;;;;;;;;;5038551;28;19941;-90
2023/06/25 05:22:40;;;;;;;;;;;;;;;;;;5019378;28;19926;-89
2023/06/25 05:25:08;;;;;;;;;;;;;;;;;;5018566;28;20417;-91
2023/06/25 05:27:35;;;;;;;;;;;;;;;;;;5025588;28;19948;-91
2023/06/25 05:30:03;;;;;;;;;;;;;;;;;;5023896;28;20262;-91
2023/06/25 05:32:31;;;;;;;;;;;;;;;;;;5024558;28;19932;-89
2023/06/25 05:34:58;;;;;;;;;;;;;;;;;;5038604;28;20427;-89
2023/06/25 05:37:26;;;;;;;;;;;;;;;;;;5028687;28;19972;-89
2023/06/25 05:39:53;;;;;;;;;;;;;;;;;;5025198;28;19925;-90
2023/06/25 05:42:21;;;;;;;;;;;;;;;;;;5023073;28;19925;-89
2023/06/25 05:44:48;;;;;;;;;;;;;;;;;;5045146;28;19925;-91
2023/06/25 05:47:16;;;;;;;;;;;;;;;;;;5026567;28;19940;-91
2023/06/25 05:49:44;;;;;;;;;;;;;;;;;;5024175;28;20301;-89
2023/06/25 05:52:11;;;;;;;;;;;;;;;;;;5037706;28;19929;-90
2023/06/25 05:54:39;;;;;;;;;;;;;;;;;;5028588;28;19925;-90
2023/06/25 05:57:06;;;;;;;;;;;;;;;;;;5023005;28;21299;-89
2023/06/25 05:59:34;;;;;;;;;;;;;;;;;;5025083;28;19925;-91
2023/06/25 06:02:02;;;;;;;;;;;;;;;;;;5029455;28;19929;-89
2023/06/25 06:04:47;;;;;;;;;;;;;;;;;;5043559;28;19948;-89
2023/06/25 06:07:15;;;;;;;;;;;;;;;;;;5024241;28;19925;-89
2023/06/25 06:09:42;;;;;;;;;;;;;;;;;;5024689;28;19932;-89
2023/06/25 06:12:10;;;;;;;;;;;;;;;;;;5031478;28;19940;-89
2023/06/25 06:14:38;;;;;;;;;;;;;;;;;;5027376;28;19925;-88
2023/06/25 06:17:05;;;;;;;;;;;;;;;;;;5028569;28;19932;-90
2023/06/25 06:19:33;;;;;;;;;;;;;;;;;;5029789;28;20743;-89
2023/06/25 06:22:00;;;;;;;;;;;;;;;;;;5027416;28;20688;-90
2023/06/25 06:24:28;;;;;;;;;;;;;;;;;;5021263;28;19929;-90
2023/06/25 06:26:56;;;;;;;;;;;;;;;;;;5031306;28;19929;-93
2023/06/25 06:29:23;;;;;;;;;;;;;;;;;;5025196;28;19955;-91
2023/06/25 06:31:51;;;;;;;;;;;;;;;;;;5026173;28;19940;-90
2023/06/25 06:34:18;;;;;;;;;;;;;;;;;;5031828;28;19936;-90
2023/06/25 06:36:46;;;;;;;;;;;;;;;;;;5025734;28;19929;-92
2023/06/25 06:39:31;;;;;;;;;;;;;;;;;;5039575;28;20389;-90
2023/06/25 06:41:59;;;;;;;;;;;;;;;;;;5024333;28;19932;-88
2023/06/25 06:44:26;;;;;;;;;;;;;;;;;;5023991;28;19933;-92
2023/06/25 06:46:54;;;;;;;;;;;;;;;;;;5024162;28;20757;-93
2023/06/25 06:49:22;;;;;;;;;;;;;;;;;;5030174;28;19932;-91
2023/06/25 06:51:49;;;;;;;;;;;;;;;;;;5021857;28;19932;-93
2023/06/25 06:54:17;;;;;;;;;;;;;;;;;;5024563;28;19933;-89
2023/06/25 06:56:44;;;;;;;;;;;;;;;;;;5020302;28;19935;-92
2023/06/25 06:59:12;;;;;;;;;;;;;;;;;;5024643;28;19929;-91
2023/06/25 07:01:40;;;;;;;;;;;;;;;;;;5024375;28;19937;-94
2023/06/25 07:04:07;;;;;;;;;;;;;;;;;;5024695;28;19936;-94
2023/06/25 07:06:35;;;;;;;;;;;;;;;;;;5041649;28;19940;-94
2023/06/25 07:09:02;;;;;;;;;;;;;;;;;;5038983;28;19929;-92
2023/06/25 07:11:30;;;;;;;;;;;;;;;;;;5025414;28;19937;-91
2023/06/25 07:13:58;;;;;;;;;;;;;;;;;;5020199;28;19948;-90
2023/06/25 07:16:31;;;;;;;;;;;;;;;;;;5024349;28;19936;-89
2023/06/25 07:18:58;;;;;;;;;;;;;;;;;;5020352;28;19940;-90
2023/06/25 07:21:26;;;;;;;;;;;;;;;;;;5026388;28;19929;-90
2023/06/25 07:23:54;;;;;;;;;;;;;;;;;;5025422;28;19940;-92
2023/06/25 07:26:21;;;;;;;;;;;;;;;;;;5031305;28;19936;-91
2023/06/25 07:28:49;;;;;;;;;;;;;;;;;;5025575;28;19929;-90
2023/06/25 07:31:17;;;;;;;;;;;;;;;;;;5029985;28;19936;-88
2023/06/25 07:33:45;;;;;;;;;;;;;;;;;;5032362;28;20381;-90
2023/06/25 07:36:13;;;;;;;;;;;;;;;;;;5024175;28;19933;-88
2023/06/25 07:38:40;;;;;;;;;;;;;;;;;;5026642;28;19932;-88
2023/06/25 07:41:08;;;;;;;;;;;;;;;;;;5026664;28;19929;-90
2023/06/25 07:43:36;;;;;;;;;;;;;;;;;;5026088;28;19925;-91
2023/06/25 07:46:04;;;;;;;;;;;;;;;;;;5040964;28;19929;-90
2023/06/25 07:48:49;;;;;;;;;;;;;;;;;;5037444;28;20511;-91
2023/06/25 07:51:17;;;;;;;;;;;;;;;;;;5028929;28;19955;-90
2023/06/25 07:53:47;;;;;;;;;;;;;;;;;;5036352;28;19929;-90
2023/06/25 07:56:14;;;;;;;;;;;;;;;;;;5027358;28;19930;-92
2023/06/25 07:58:42;;;;;;;;;;;;;;;;;;5032788;28;19925;-94
2023/06/25 08:01:10;;;;;;;;;;;;;;;;;;5031769;28;19929;-93
2023/06/25 08:03:49;;;;;;;;;;;;;;;;;;5041358;28;19925;-88
2023/06/25 08:06:45;;;;;;;;;;;;;;;;;;5033597;28;19936;-91
2023/06/25 08:09:23;;;;;;;;;;;;;;;;;;5030697;28;19913;-91
2023/06/25 08:15:02;;;;;;;;;;;;;;;;;;5036969;28;20381;-86
2023/06/25 08:17:29;;;;;;;;;;;;;;;;;;5023046;28;20382;-86
2023/06/25 08:19:57;;;;;;;;;;;;;;;;;;5019599;28;19925;-87
2023/06/25 08:22:25;;;;;;;;;;;;;;;;;;5024350;28;20294;-86
2023/06/25 08:24:52;;;;;;;;;;;;;;;;;;5029651;28;19929;-89
2023/06/25 08:27:20;;;;;;;;;;;;;;;;;;5025896;28;19929;-89
2023/06/25 08:29:47;;;;;;;;;;;;;;;;;;5036269;28;19933;-87
2023/06/25 08:32:15;;;;;;;;;;;;;;;;;;5043316;28;20396;-88
2023/06/25 08:34:42;;;;;;;;;;;;;;;;;;5027621;28;19936;-86
2023/06/25 08:37:10;;;;;;;;;;;;;;;;;;5028916;28;20408;-85
2023/06/25 08:39:40;;;;;;;;;;;;;;;;;;5045285;28;19929;-86
2023/06/25 08:42:07;;;;;;;;;;;;;;;;;;5029461;28;19925;-88
2023/06/25 08:44:35;;;;;;;;;;;;;;;;;;5027228;28;20305;-88
2023/06/25 08:47:03;;;;;;;;;;;;;;;;;;5030051;28;20290;-87
2023/06/25 08:49:35;;;;;;;;;;;;;;;;;;5028008;28;19929;-88
2023/06/25 08:52:03;;;;;;;;;;;;;;;;;;5028929;28;19925;-87
2023/06/25 08:54:35;;;;;;;;;;;;;;;;;;5026180;28;20397;-87
2023/06/25 08:57:08;;;;;;;;;;;;;;;;;;5029260;28;19932;-85
2023/06/25 08:59:35;;;;;;;;;;;;;;;;;;5027673;28;19940;-88
2023/06/25 09:02:03;;;;;;;;;;;;;;;;;;5025978;28;19925;-86
2023/06/25 09:04:36;;;;;;;;;;;;;;;;;;5032461;28;20300;-87
2023/06/25 09:07:03;;;;;;;;;;;;;;;;;;5041561;28;19925;-86
2023/06/25 09:09:31;;;;;;;;;;;;;;;;;;5026320;28;19933;-86
2023/06/25 09:11:58;;;;;;;;;;;;;;;;;;5036042;28;19932;-87
2023/06/25 09:14:26;;;;;;;;;;;;;;;;;;5028084;28;19928;-87
2023/06/25 09:16:54;;;;;;;;;;;;;;;;;;5021338;28;20401;-86
2023/06/25 09:19:22;;;;;;;;;;;;;;;;;;5024628;28;19933;-89
2023/06/25 09:21:49;;;;;;;;;;;;;;;;;;5025389;28;19932;-86
2023/06/25 09:24:22;;;;;;;;;;;;;;;;;;5022600;28;19948;-88
2023/06/25 09:26:49;;;;;;;;;;;;;;;;;;5030557;28;19933;-89
2023/06/25 09:29:17;;;;;;;;;;;;;;;;;;5021143;28;20277;-87
2023/06/25 09:31:49;;;;;;;;;;;;;;;;;;5012132;28;19940;-86
2023/06/25 09:34:17;;;;;;;;;;;;;;;;;;5002811;28;20489;-87
2023/06/25 09:36:45;;;;;;;;;;;;;;;;;;5011048;28;19933;-86
2023/06/25 09:39:17;;;;;;;;;;;;;;;;;;5010838;28;19933;-89
2023/06/25 09:41:45;;;;;;;;;;;;;;;;;;5005759;28;21693;-86
2023/06/25 09:44:17;;;;;;;;;;;;;;;;;;5005263;28;19933;-90
2023/06/25 09:46:45;;;;;;;;;;;;;;;;;;5009363;28;19933;-88
2023/06/25 09:49:12;;;;;;;;;;;;;;;;;;4974743;28;20734;-82
2023/06/25 09:51:40;;;;;;;;;;;;;;;;;;4983370;28;19934;-82
2023/06/25 09:54:07;;;;;;;;;;;;;;;;;;4982215;28;19933;-80
2023/06/25 09:56:44;;;;;;;;;;;;;;;;;;4983061;28;19933;-87
2023/06/25 09:59:11;;;;;;;;;;;;;;;;;;4992919;28;20646;-88
2023/06/25 10:08:18;;;;;;;;;;;;;;;;;;5066945;28;19932;-92
2023/06/25 10:17:43;;;;;;;;;;;;;;;;;;5082458;28;19932;-94
2023/06/25 10:20:37;;;;;;;;;;;;;;;;;;5084998;28;19931;-92
2023/06/25 10:23:12;;;;;;;;;;;;;;;;;;5076555;28;19928;-91
2023/06/25 10:25:45;;;;;;;;;;;;;;;;;;5077534;28;19929;-92
2023/06/25 10:28:34;;;;;;;;;;;;;;;;;;5075164;28;19932;-91
2023/06/25 10:31:53;;;;;;;;;;;;;;;;;;5063301;28;19932;-92
2023/06/25 10:37:55;;;;;;;;;;;;;;;;;;5079293;22;19933;-87
2023/06/25 10:40:23;;;;;;;;;;;;;;;;;;5014345;28;20389;-87
2023/06/25 10:42:51;;;;;;;;;;;;;;;;;;5013509;28;19930;-86
2023/06/25 10:45:26;;;;;;;;;;;;;;;;;;5033353;28;19925;-88
2023/06/25 10:48:12;;;;;;;;;;;;;;;;;;5038961;28;19936;-88
2023/06/25 10:50:48;;;;;;;;;;;;;;;;;;5035692;28;19925;-87
2023/06/25 10:56:31;;;;;;;;;;;;;;;;;;5021837;28;19936;-88
2023/06/25 11:01:54;;;;;;;;;;;;;;;;;;5010664;28;19929;-87
2023/06/25 11:04:21;;;;;;;;;;;;;;;;;;5047021;28;19936;-88
2023/06/25 11:06:49;;;;;;;;;;;;;;;;;;5051216;28;20140;-87
2023/06/25 11:09:21;;;;;;;;;;;;;;;;;;5033237;28;19929;-87
2023/06/25 11:11:50;;;;;;;;;;;;;;;;;;5049543;28;19925;-87
2023/06/25 11:14:18;;;;;;;;;;;;;;;;;;5027634;28;19930;-87
2023/06/25 11:16:46;;;;;;;;;;;;;;;;;;5019235;28;19929;-87
2023/06/25 11:19:13;;;;;;;;;;;;;;;;;;5034951;28;20302;-87
2023/06/25 11:21:41;;;;;;;;;;;;;;;;;;5019969;28;19929;-88
2023/06/25 11:24:09;;;;;;;;;;;;;;;;;;5018455;28;19929;-86
2023/06/25 11:26:47;;;;;;;;;;;;;;;;;;5035701;28;19926;-89
2023/06/25 11:29:20;;;;;;;;;;;;;;;;;;5022136;28;19929;-85
2023/06/25 11:31:49;;;;;;;;;;;;;;;;;;5018156;28;20274;-88
2023/06/25 11:34:28;;;;;;;;;;;;;;;;;;5018246;28;19929;-88
2023/06/25 11:36:56;;;;;;;;;;;;;;;;;;5015027;28;19976;-88
2023/06/25 11:39:24;;;;;;;;;;;;;;;;;;5022235;28;19934;-88
2023/06/25 11:41:54;;;;;;;;;;;;;;;;;;5036861;28;19933;-86
2023/06/25 11:44:22;;;;;;;;;;;;;;;;;;5031097;28;19940;-86
2023/06/25 11:46:53;;;;;;;;;;;;;;;;;;5025513;28;19933;-86
2023/06/25 11:49:21;;;;;;;;;;;;;;;;;;5026585;28;20564;-88
2023/06/25 11:51:48;;;;;;;;;;;;;;;;;;5031989;28;19925;-87
2023/06/25 11:54:16;;;;;;;;;;;;;;;;;;5019452;28;19925;-86
2023/06/25 11:56:49;;;;;;;;;;;;;;;;;;5036841;28;20377;-88
2023/06/25 11:59:18;;;;;;;;;;;;;;;;;;5038249;28;19925;-88
2023/06/25 12:01:46;;;;;;;;;;;;;;;;;;5028701;28;19926;-87
2023/06/25 12:04:13;;;;;;;;;;;;;;;;;;5020989;28;19935;-88
2023/06/25 12:06:41;;;;;;;;;;;;;;;;;;5025719;28;19925;-88
2023/06/25 12:09:08;;;;;;;;;;;;;;;;;;5023358;28;19929;-88
2023/06/25 12:11:37;;;;;;;;;;;;;;;;;;5027927;28;20218;-88
2023/06/25 12:14:07;;;;;;;;;;;;;;;;;;5018991;28;19925;-86
2023/06/25 12:16:35;;;;;;;;;;;;;;;;;;5024205;28;20586;-85
2023/06/25 12:19:05;;;;;;;;;;;;;;;;;;5021895;28;20588;-87
2023/06/25 12:21:33;;;;;;;;;;;;;;;;;;5028101;28;19940;-86
2023/06/25 12:24:02;;;;;;;;;;;;;;;;;;5037519;28;19932;-89
2023/06/25 12:26:30;;;;;;;;;;;;;;;;;;5022838;28;20479;-87
2023/06/25 12:28:59;;;;;;;;;;;;;;;;;;5037419;28;19935;-87
2023/06/25 12:31:27;;;;;;;;;;;;;;;;;;5034707;28;19925;-88
2023/06/25 12:33:54;;;;;;;;;;;;;;;;;;5025794;28;20563;-88
2023/06/25 12:36:22;;;;;;;;;;;;;;;;;;5025257;28;20412;-87
2023/06/25 12:38:50;;;;;;;;;;;;;;;;;;5018765;28;19948;-85
2023/06/25 12:41:18;;;;;;;;;;;;;;;;;;5024785;28;19925;-89
2023/06/25 12:43:45;;;;;;;;;;;;;;;;;;5034265;28;19925;-85
2023/06/25 12:46:13;;;;;;;;;;;;;;;;;;5039369;28;19933;-87
2023/06/25 12:48:41;;;;;;;;;;;;;;;;;;5026256;28;19932;-87
2023/06/25 12:51:08;;;;;;;;;;;;;;;;;;5027906;28;19925;-87
2023/06/25 12:53:36;;;;;;;;;;;;;;;;;;5044113;28;19936;-86
2023/06/25 12:56:04;;;;;;;;;;;;;;;;;;5024598;28;20416;-87
2023/06/25 12:58:33;;;;;;;;;;;;;;;;;;5033275;28;19933;-87
2023/06/25 13:01:07;;;;;;;;;;;;;;;;;;5034746;28;20837;-88
2023/06/25 13:03:35;;;;;;;;;;;;;;;;;;5021551;28;19925;-87
2023/06/25 13:06:03;;;;;;;;;;;;;;;;;;5028232;28;19925;-85
2023/06/25 13:08:31;;;;;;;;;;;;;;;;;;5042533;28;19933;-87
2023/06/25 13:10:58;;;;;;;;;;;;;;;;;;5036257;28;20794;-87
2023/06/25 13:13:26;;;;;;;;;;;;;;;;;;5028909;28;19944;-87
2023/06/25 13:15:55;;;;;;;;;;;;;;;;;;5019279;28;19929;-86
2023/06/25 13:18:23;;;;;;;;;;;;;;;;;;5038174;28;19936;-87
2023/06/25 13:20:51;;;;;;;;;;;;;;;;;;5027742;28;19936;-88
2023/06/25 13:23:20;;;;;;;;;;;;;;;;;;5020716;28;19929;-86
2023/06/25 13:25:48;;;;;;;;;;;;;;;;;;5024317;28;19932;-87
2023/06/25 13:28:16;;;;;;;;;;;;;;;;;;5010235;28;19929;-87
2023/06/25 13:30:46;;;;;;;;;;;;;;;;;;5021446;28;20637;-87
2023/06/25 13:33:14;;;;;;;;;;;;;;;;;;5025329;28;19933;-89
2023/06/25 13:35:43;;;;;;;;;;;;;;;;;;5011313;28;19929;-86
2023/06/25 13:38:11;;;;;;;;;;;;;;;;;;5033778;28;19933;-88
2023/06/25 13:40:39;;;;;;;;;;;;;;;;;;5031719;28;19932;-88
2023/06/25 13:43:07;;;;;;;;;;;;;;;;;;4968826;28;20945;-87
2023/06/25 13:45:35;;;;;;;;;;;;;;;;;;4971208;28;20627;-88
2023/06/25 13:48:03;;;;;;;;;;;;;;;;;;4951567;28;20314;-89
2023/06/25 13:50:32;;;;;;;;;;;;;;;;;;4955364;28;19935;-88
2023/06/25 13:53:00;;;;;;;;;;;;;;;;;;4961602;28;19934;-88
2023/06/25 13:55:28;;;;;;;;;;;;;;;;;;4969086;28;20595;-88
2023/06/25 13:57:56;;;;;;;;;;;;;;;;;;4954690;28;19934;-87
2023/06/25 14:00:29;;;;;;;;;;;;;;;;;;4970077;28;19934;-88
2023/06/25 14:02:58;;;;;;;;;;;;;;;;;;4969644;28;19934;-88
2023/06/25 14:05:26;;;;;;;;;;;;;;;;;;4971734;28;20567;-88
2023/06/25 14:07:55;;;;;;;;;;;;;;;;;;4969961;28;19934;-88
2023/06/25 14:10:22;;;;;;;;;;;;;;;;;;4958698;28;19934;-83
2023/06/25 14:12:51;;;;;;;;;;;;;;;;;;4963691;28;19941;-88
2023/06/25 14:15:19;;;;;;;;;;;;;;;;;;4967209;28;19941;-87
2023/06/25 14:17:47;;;;;;;;;;;;;;;;;;4952471;28;19934;-89
2023/06/25 14:20:14;;;;;;;;;;;;;;;;;;4954077;28;19933;-88
2023/06/25 14:22:55;;;;;;;;;;;;;;;;;;4963082;28;20342;-87
2023/06/25 14:25:23;;;;;;;;;;;;;;;;;;4966110;28;19933;-88
2023/06/25 14:27:51;;;;;;;;;;;;;;;;;;4973850;28;19930;-92
2023/06/25 14:30:19;;;;;;;;;;;;;;;;;;4973053;28;20282;-87
2023/06/25 14:32:46;;;;;;;;;;;;;;;;;;4962970;28;19945;-88
2023/06/25 14:35:14;;;;;;;;;;;;;;;;;;4974609;28;19949;-88
2023/06/25 14:37:42;;;;;;;;;;;;;;;;;;4959266;28;19934;-87
2023/06/25 14:40:11;;;;;;;;;;;;;;;;;;4972994;28;19933;-89
2023/06/25 14:42:39;;;;;;;;;;;;;;;;;;4978981;28;19953;-91
2023/06/25 14:45:06;;;;;;;;;;;;;;;;;;4965220;28;20477;-91
2023/06/25 14:47:34;;;;;;;;;;;;;;;;;;4979402;28;20461;-92
2023/06/25 14:50:02;;;;;;;;;;;;;;;;;;4980242;28;20493;-86
2023/06/25 14:52:30;;;;;;;;;;;;;;;;;;4980545;28;19941;-87
2023/06/25 14:54:58;;;;;;;;;;;;;;;;;;4965801;28;19934;-92
2023/06/25 14:57:25;;;;;;;;;;;;;;;;;;4970842;28;20808;-86
2023/06/25 14:59:53;;;;;;;;;;;;;;;;;;4979412;28;19945;-91
2023/06/25 15:02:21;;;;;;;;;;;;;;;;;;4984946;28;19933;-86
2023/06/25 15:04:48;;;;;;;;;;;;;;;;;;4964781;28;19933;-88
2023/06/25 15:07:17;;;;;;;;;;;;;;;;;;4978503;28;19934;-89
2023/06/25 15:09:44;;;;;;;;;;;;;;;;;;4961048;28;20264;-85
2023/06/25 15:12:12;;;;;;;;;;;;;;;;;;4964128;28;20406;-87
2023/06/25 15:14:40;;;;;;;;;;;;;;;;;;4977722;28;19934;-87
2023/06/25 15:17:08;;;;;;;;;;;;;;;;;;4982261;28;19933;-89
2023/06/25 15:19:36;;;;;;;;;;;;;;;;;;4979289;28;19934;-93
2023/06/25 15:22:04;;;;;;;;;;;;;;;;;;4969200;28;19941;-90
2023/06/25 15:24:32;;;;;;;;;;;;;;;;;;4978291;28;19934;-88
2023/06/25 15:27:01;;;;;;;;;;;;;;;;;;4971610;28;20613;-84
2023/06/25 15:29:29;;;;;;;;;;;;;;;;;;4975786;28;19933;-89
2023/06/25 15:31:58;;;;;;;;;;;;;;;;;;4982895;28;19930;-87
2023/06/25 15:34:27;;;;;;;;;;;;;;;;;;4981909;28;19945;-90
2023/06/25 15:36:54;;;;;;;;;;;;;;;;;;4962790;28;19929;-86
2023/06/25 15:39:22;;;;;;;;;;;;;;;;;;4977168;28;19933;-87
2023/06/25 15:41:49;;;;;;;;;;;;;;;;;;4982294;28;19969;-88
2023/06/25 15:44:17;;;;;;;;;;;;;;;;;;4979089;28;19938;-87
2023/06/25 15:46:45;;;;;;;;;;;;;;;;;;4960560;28;19938;-86
2023/06/25 15:49:17;;;;;;;;;;;;;;;;;;4965122;28;19933;-87
2023/06/25 15:51:45;;;;;;;;;;;;;;;;;;4961776;28;19954;-85
2023/06/25 15:54:12;;;;;;;;;;;;;;;;;;4968726;28;19950;-87
2023/06/25 15:56:40;;;;;;;;;;;;;;;;;;4965677;28;19940;-89
2023/06/25 15:59:08;;;;;;;;;;;;;;;;;;4957511;28;20288;-87
2023/06/25 16:01:35;;;;;;;;;;;;;;;;;;4977310;28;20806;-88
2023/06/25 16:04:03;;;;;;;;;;;;;;;;;;4973322;28;20754;-88
2023/06/25 16:06:30;;;;;;;;;;;;;;;;;;4979498;28;19933;-87
2023/06/25 16:08:58;;;;;;;;;;;;;;;;;;4960742;28;19934;-88
2023/06/25 16:11:26;;;;;;;;;;;;;;;;;;4976517;28;19934;-87
2023/06/25 16:13:54;;;;;;;;;;;;;;;;;;4970482;28;19934;-90
2023/06/25 16:16:21;;;;;;;;;;;;;;;;;;4957649;28;19934;-87
2023/06/25 16:18:49;;;;;;;;;;;;;;;;;;4976991;28;19941;-88
2023/06/25 16:21:17;;;;;;;;;;;;;;;;;;4982265;28;19941;-89
2023/06/25 16:23:44;;;;;;;;;;;;;;;;;;4982887;28;19957;-88
2023/06/25 16:26:12;;;;;;;;;;;;;;;;;;4965716;28;19984;-87
2023/06/25 16:28:39;;;;;;;;;;;;;;;;;;4963383;28;20295;-88
2023/06/25 16:31:07;;;;;;;;;;;;;;;;;;4958159;28;19957;-88
2023/06/25 16:33:35;;;;;;;;;;;;;;;;;;4975195;28;19935;-87
2023/06/25 16:36:02;;;;;;;;;;;;;;;;;;4975564;28;19934;-88
2023/06/25 16:38:30;;;;;;;;;;;;;;;;;;4981110;28;19941;-90
2023/06/25 16:40:58;;;;;;;;;;;;;;;;;;4970327;28;19936;-88
2023/06/25 16:43:25;;;;;;;;;;;;;;;;;;4958769;28;19941;-90
2023/06/25 16:45:54;;;;;;;;;;;;;;;;;;4972818;28;21409;-88
2023/06/25 16:48:21;;;;;;;;;;;;;;;;;;4957728;28;19934;-89
2023/06/25 16:50:49;;;;;;;;;;;;;;;;;;4962728;28;19937;-88
2023/06/25 16:53:16;;;;;;;;;;;;;;;;;;4977183;28;19934;-88
2023/06/25 16:55:44;;;;;;;;;;;;;;;;;;4976264;28;20322;-89
2023/06/25 16:58:12;;;;;;;;;;;;;;;;;;4961979;28;19940;-90
2023/06/25 17:00:39;;;;;;;;;;;;;;;;;;4969347;28;19941;-88
2023/06/25 17:03:07;;;;;;;;;;;;;;;;;;4973489;28;19941;-88
2023/06/25 17:05:35;;;;;;;;;;;;;;;;;;4972705;28;19934;-89
2023/06/25 17:08:03;;;;;;;;;;;;;;;;;;4971451;28;19934;-89
2023/06/25 17:10:30;;;;;;;;;;;;;;;;;;4961720;28;21135;-88
2023/06/25 17:12:58;;;;;;;;;;;;;;;;;;4977974;28;20483;-91
2023/06/25 17:15:26;;;;;;;;;;;;;;;;;;4958146;28;20645;-86
2023/06/25 17:17:54;;;;;;;;;;;;;;;;;;4956842;28;19933;-87
2023/06/25 17:20:22;;;;;;;;;;;;;;;;;;4975175;28;19941;-88
2023/06/25 17:22:50;;;;;;;;;;;;;;;;;;4955711;28;20008;-86